sensor_id;sensor_type;location;lat;lon;timestamp;P1;durP1;ratioP1;P2;durP2;ratioP2
43325;SDS011;28920;59.862;30.636;2023-03-18T00:00:57;7.30;;;3.83;;
43325;SDS011;28920;59.862;30.636;2023-03-18T00:03:27;7.45;;;3.03;;
43325;SDS011;28920;59.862;30.636;2023-03-18T00:06:01;6.55;;;3.67;;
43325;SDS011;28920;59.862;30.636;2023-03-18T00:08:29;5.32;;;2.90;;
43325;SDS011;28920;59.862;30.636;2023-03-18T00:10:57;5.57;;;3.42;;
43325;SDS011;28920;59.862;30.636;2023-03-18T00:13:25;6.32;;;3.58;;
43325;SDS011;28920;59.862;30.636;2023-03-18T00:15:53;6.60;;;3.25;;
43325;SDS011;28920;59.862;30.636;2023-03-18T00:18:20;8.30;;;3.40;;
43325;SDS011;28920;59.862;30.636;2023-03-18T00:20:48;6.15;;;3.15;;
43325;SDS011;28920;59.862;30.636;2023-03-18T00:23:15;7.15;;;3.47;;
43325;SDS011;28920;59.862;30.636;2023-03-18T00:25:45;7.12;;;4.22;;
43325;SDS011;28920;59.862;30.636;2023-03-18T00:28:12;8.43;;;3.50;;
43325;SDS011;28920;59.862;30.636;2023-03-18T00:30:40;11.15;;;4.93;;
43325;SDS011;28920;59.862;30.636;2023-03-18T00:33:08;5.47;;;3.42;;
43325;SDS011;28920;59.862;30.636;2023-03-18T00:35:36;7.78;;;3.70;;
43325;SDS011;28920;59.862;30.636;2023-03-18T00:38:05;6.45;;;3.08;;
43325;SDS011;28920;59.862;30.636;2023-03-18T00:40:34;7.28;;;4.78;;
43325;SDS011;28920;59.862;30.636;2023-03-18T00:43:19;7.95;;;3.85;;
43325;SDS011;28920;59.862;30.636;2023-03-18T00:45:48;9.48;;;2.83;;
43325;SDS011;28920;59.862;30.636;2023-03-18T00:48:16;5.25;;;2.55;;
43325;SDS011;28920;59.862;30.636;2023-03-18T00:50:44;7.22;;;4.60;;
43325;SDS011;28920;59.862;30.636;2023-03-18T00:53:12;5.97;;;3.10;;
43325;SDS011;28920;59.862;30.636;2023-03-18T00:55:40;6.55;;;2.72;;
43325;SDS011;28920;59.862;30.636;2023-03-18T00:58:08;8.10;;;2.97;;
43325;SDS011;28920;59.862;30.636;2023-03-18T01:00:36;6.82;;;2.62;;
43325;SDS011;28920;59.862;30.636;2023-03-18T01:03:05;5.43;;;2.78;;
43325;SDS011;28920;59.862;30.636;2023-03-18T01:05:33;4.95;;;2.62;;
43325;SDS011;28920;59.862;30.636;2023-03-18T01:08:02;6.35;;;3.28;;
43325;SDS011;28920;59.862;30.636;2023-03-18T01:10:30;7.95;;;3.28;;
43325;SDS011;28920;59.862;30.636;2023-03-18T01:12:59;7.68;;;4.03;;
43325;SDS011;28920;59.862;30.636;2023-03-18T01:15:26;4.57;;;2.50;;
43325;SDS011;28920;59.862;30.636;2023-03-18T01:17:54;9.00;;;3.95;;
43325;SDS011;28920;59.862;30.636;2023-03-18T01:20:24;5.05;;;2.92;;
43325;SDS011;28920;59.862;30.636;2023-03-18T01:22:52;4.53;;;2.42;;
43325;SDS011;28920;59.862;30.636;2023-03-18T01:25:19;5.87;;;2.50;;
43325;SDS011;28920;59.862;30.636;2023-03-18T01:27:49;4.18;;;2.15;;
43325;SDS011;28920;59.862;30.636;2023-03-18T01:30:16;8.27;;;2.97;;
43325;SDS011;28920;59.862;30.636;2023-03-18T01:32:44;10.13;;;3.45;;
43325;SDS011;28920;59.862;30.636;2023-03-18T01:35:13;6.35;;;3.17;;
43325;SDS011;28920;59.862;30.636;2023-03-18T01:37:41;4.97;;;2.70;;
43325;SDS011;28920;59.862;30.636;2023-03-18T01:40:10;4.97;;;3.03;;
43325;SDS011;28920;59.862;30.636;2023-03-18T01:42:40;6.97;;;3.62;;
43325;SDS011;28920;59.862;30.636;2023-03-18T01:45:13;5.70;;;2.60;;
43325;SDS011;28920;59.862;30.636;2023-03-18T01:47:45;7.32;;;2.55;;
43325;SDS011;28920;59.862;30.636;2023-03-18T01:50:14;6.87;;;2.97;;
43325;SDS011;28920;59.862;30.636;2023-03-18T01:52:44;5.40;;;2.47;;
43325;SDS011;28920;59.862;30.636;2023-03-18T01:55:15;6.90;;;2.83;;
43325;SDS011;28920;59.862;30.636;2023-03-18T01:57:44;7.25;;;2.80;;
43325;SDS011;28920;59.862;30.636;2023-03-18T02:00:13;6.75;;;2.90;;
43325;SDS011;28920;59.862;30.636;2023-03-18T02:02:43;6.80;;;2.93;;
43325;SDS011;28920;59.862;30.636;2023-03-18T02:05:14;7.20;;;2.90;;
43325;SDS011;28920;59.862;30.636;2023-03-18T02:07:43;5.32;;;2.60;;
43325;SDS011;28920;59.862;30.636;2023-03-18T02:10:12;7.95;;;2.92;;
43325;SDS011;28920;59.862;30.636;2023-03-18T02:12:43;6.12;;;2.55;;
43325;SDS011;28920;59.862;30.636;2023-03-18T02:15:17;6.32;;;2.37;;
43325;SDS011;28920;59.862;30.636;2023-03-18T02:17:48;5.72;;;2.92;;
43325;SDS011;28920;59.862;30.636;2023-03-18T02:20:23;6.93;;;3.15;;
43325;SDS011;28920;59.862;30.636;2023-03-18T02:23:05;5.55;;;3.03;;
43325;SDS011;28920;59.862;30.636;2023-03-18T02:25:40;6.45;;;2.70;;
43325;SDS011;28920;59.862;30.636;2023-03-18T02:28:27;5.00;;;2.72;;
43325;SDS011;28920;59.862;30.636;2023-03-18T02:30:59;5.75;;;2.42;;
43325;SDS011;28920;59.862;30.636;2023-03-18T02:33:30;4.37;;;2.22;;
43325;SDS011;28920;59.862;30.636;2023-03-18T02:36:02;4.95;;;2.20;;
43325;SDS011;28920;59.862;30.636;2023-03-18T02:38:33;3.75;;;2.15;;
43325;SDS011;28920;59.862;30.636;2023-03-18T02:41:00;4.93;;;2.50;;
43325;SDS011;28920;59.862;30.636;2023-03-18T02:43:31;3.50;;;2.30;;
43325;SDS011;28920;59.862;30.636;2023-03-18T02:46:10;5.80;;;2.28;;
43325;SDS011;28920;59.862;30.636;2023-03-18T02:48:44;4.87;;;2.12;;
43325;SDS011;28920;59.862;30.636;2023-03-18T02:51:13;3.45;;;2.10;;
43325;SDS011;28920;59.862;30.636;2023-03-18T02:53:41;3.50;;;2.33;;
43325;SDS011;28920;59.862;30.636;2023-03-18T02:56:10;4.72;;;2.67;;
43325;SDS011;28920;59.862;30.636;2023-03-18T02:58:40;5.87;;;1.90;;
43325;SDS011;28920;59.862;30.636;2023-03-18T03:01:08;3.33;;;1.80;;
43325;SDS011;28920;59.862;30.636;2023-03-18T03:03:37;3.45;;;1.67;;
43325;SDS011;28920;59.862;30.636;2023-03-18T03:06:05;5.35;;;3.20;;
43325;SDS011;28920;59.862;30.636;2023-03-18T03:08:33;5.28;;;4.30;;
43325;SDS011;28920;59.862;30.636;2023-03-18T03:11:01;5.75;;;2.00;;
43325;SDS011;28920;59.862;30.636;2023-03-18T03:13:30;5.28;;;3.90;;
43325;SDS011;28920;59.862;30.636;2023-03-18T03:15:58;5.47;;;4.80;;
43325;SDS011;28920;59.862;30.636;2023-03-18T03:18:26;3.78;;;1.87;;
43325;SDS011;28920;59.862;30.636;2023-03-18T03:20:55;5.12;;;2.00;;
43325;SDS011;28920;59.862;30.636;2023-03-18T03:23:22;3.08;;;2.05;;
43325;SDS011;28920;59.862;30.636;2023-03-18T03:25:49;3.45;;;1.60;;
43325;SDS011;28920;59.862;30.636;2023-03-18T03:28:18;2.70;;;1.98;;
43325;SDS011;28920;59.862;30.636;2023-03-18T03:30:45;3.40;;;1.75;;
43325;SDS011;28920;59.862;30.636;2023-03-18T03:33:15;3.10;;;2.00;;
43325;SDS011;28920;59.862;30.636;2023-03-18T03:35:42;2.40;;;1.40;;
43325;SDS011;28920;59.862;30.636;2023-03-18T03:38:09;2.58;;;1.58;;
43325;SDS011;28920;59.862;30.636;2023-03-18T03:40:38;5.18;;;2.30;;
43325;SDS011;28920;59.862;30.636;2023-03-18T03:43:05;7.50;;;2.35;;
43325;SDS011;28920;59.862;30.636;2023-03-18T03:45:32;4.20;;;2.40;;
43325;SDS011;28920;59.862;30.636;2023-03-18T03:48:00;2.67;;;1.40;;
43325;SDS011;28920;59.862;30.636;2023-03-18T03:50:28;3.75;;;1.60;;
43325;SDS011;28920;59.862;30.636;2023-03-18T03:52:55;6.50;;;1.95;;
43325;SDS011;28920;59.862;30.636;2023-03-18T03:55:23;4.93;;;2.08;;
43325;SDS011;28920;59.862;30.636;2023-03-18T03:57:51;2.22;;;1.87;;
43325;SDS011;28920;59.862;30.636;2023-03-18T04:00:20;6.45;;;3.37;;
43325;SDS011;28920;59.862;30.636;2023-03-18T04:02:49;3.45;;;1.80;;
43325;SDS011;28920;59.862;30.636;2023-03-18T04:05:18;3.62;;;1.67;;
43325;SDS011;28920;59.862;30.636;2023-03-18T04:07:47;2.75;;;1.85;;
43325;SDS011;28920;59.862;30.636;2023-03-18T04:10:16;2.70;;;1.55;;
43325;SDS011;28920;59.862;30.636;2023-03-18T04:12:45;3.58;;;1.40;;
43325;SDS011;28920;59.862;30.636;2023-03-18T04:15:14;3.40;;;1.60;;
43325;SDS011;28920;59.862;30.636;2023-03-18T04:17:43;1.85;;;1.48;;
43325;SDS011;28920;59.862;30.636;2023-03-18T04:20:11;4.05;;;2.15;;
43325;SDS011;28920;59.862;30.636;2023-03-18T04:22:39;3.28;;;1.85;;
43325;SDS011;28920;59.862;30.636;2023-03-18T04:25:09;3.35;;;1.62;;
43325;SDS011;28920;59.862;30.636;2023-03-18T04:27:39;3.33;;;3.03;;
43325;SDS011;28920;59.862;30.636;2023-03-18T04:30:08;4.78;;;2.15;;
43325;SDS011;28920;59.862;30.636;2023-03-18T04:32:37;3.58;;;1.98;;
43325;SDS011;28920;59.862;30.636;2023-03-18T04:35:04;4.05;;;1.90;;
43325;SDS011;28920;59.862;30.636;2023-03-18T04:37:32;3.47;;;1.80;;
43325;SDS011;28920;59.862;30.636;2023-03-18T04:40:02;3.95;;;1.58;;
43325;SDS011;28920;59.862;30.636;2023-03-18T04:42:31;3.97;;;1.50;;
43325;SDS011;28920;59.862;30.636;2023-03-18T04:44:59;1.30;;;1.02;;
43325;SDS011;28920;59.862;30.636;2023-03-18T04:47:27;3.75;;;2.17;;
43325;SDS011;28920;59.862;30.636;2023-03-18T04:49:54;3.97;;;2.00;;
43325;SDS011;28920;59.862;30.636;2023-03-18T04:52:21;4.93;;;3.42;;
43325;SDS011;28920;59.862;30.636;2023-03-18T04:54:50;3.60;;;2.03;;
43325;SDS011;28920;59.862;30.636;2023-03-18T04:57:17;2.60;;;1.75;;
43325;SDS011;28920;59.862;30.636;2023-03-18T04:59:47;3.10;;;1.80;;
43325;SDS011;28920;59.862;30.636;2023-03-18T05:02:14;5.32;;;1.73;;
43325;SDS011;28920;59.862;30.636;2023-03-18T05:04:41;3.90;;;1.80;;
43325;SDS011;28920;59.862;30.636;2023-03-18T05:07:09;5.43;;;1.77;;
43325;SDS011;28920;59.862;30.636;2023-03-18T05:09:41;2.95;;;1.60;;
43325;SDS011;28920;59.862;30.636;2023-03-18T05:12:11;2.40;;;1.30;;
43325;SDS011;28920;59.862;30.636;2023-03-18T05:14:40;3.78;;;1.20;;
43325;SDS011;28920;59.862;30.636;2023-03-18T05:17:09;2.78;;;2.15;;
43325;SDS011;28920;59.862;30.636;2023-03-18T05:19:41;7.55;;;2.90;;
43325;SDS011;28920;59.862;30.636;2023-03-18T05:22:10;2.60;;;1.90;;
43325;SDS011;28920;59.862;30.636;2023-03-18T05:24:38;3.28;;;1.75;;
43325;SDS011;28920;59.862;30.636;2023-03-18T05:27:07;3.20;;;1.62;;
43325;SDS011;28920;59.862;30.636;2023-03-18T05:29:36;4.43;;;1.60;;
43325;SDS011;28920;59.862;30.636;2023-03-18T05:32:06;2.80;;;1.55;;
43325;SDS011;28920;59.862;30.636;2023-03-18T05:34:35;4.28;;;1.60;;
43325;SDS011;28920;59.862;30.636;2023-03-18T05:37:06;3.08;;;1.15;;
43325;SDS011;28920;59.862;30.636;2023-03-18T05:39:36;4.25;;;2.22;;
43325;SDS011;28920;59.862;30.636;2023-03-18T05:42:06;2.60;;;1.30;;
43325;SDS011;28920;59.862;30.636;2023-03-18T05:44:33;2.72;;;1.08;;
43325;SDS011;28920;59.862;30.636;2023-03-18T05:47:01;3.17;;;1.08;;
43325;SDS011;28920;59.862;30.636;2023-03-18T05:49:29;2.58;;;1.17;;
43325;SDS011;28920;59.862;30.636;2023-03-18T05:51:58;4.57;;;1.50;;
43325;SDS011;28920;59.862;30.636;2023-03-18T05:54:27;4.40;;;1.27;;
43325;SDS011;28920;59.862;30.636;2023-03-18T05:56:55;2.90;;;1.45;;
43325;SDS011;28920;59.862;30.636;2023-03-18T05:59:23;1.73;;;1.10;;
43325;SDS011;28920;59.862;30.636;2023-03-18T06:01:51;3.85;;;1.50;;
43325;SDS011;28920;59.862;30.636;2023-03-18T06:04:20;1.23;;;1.00;;
43325;SDS011;28920;59.862;30.636;2023-03-18T06:06:47;2.03;;;0.77;;
43325;SDS011;28920;59.862;30.636;2023-03-18T06:09:16;1.23;;;1.00;;
43325;SDS011;28920;59.862;30.636;2023-03-18T06:11:44;1.25;;;0.73;;
43325;SDS011;28920;59.862;30.636;2023-03-18T06:14:11;2.92;;;0.90;;
43325;SDS011;28920;59.862;30.636;2023-03-18T06:16:39;2.03;;;1.10;;
43325;SDS011;28920;59.862;30.636;2023-03-18T06:19:07;2.83;;;1.62;;
43325;SDS011;28920;59.862;30.636;2023-03-18T06:21:36;3.53;;;1.08;;
43325;SDS011;28920;59.862;30.636;2023-03-18T06:24:05;2.45;;;1.08;;
43325;SDS011;28920;59.862;30.636;2023-03-18T06:26:34;2.95;;;1.35;;
43325;SDS011;28920;59.862;30.636;2023-03-18T06:29:01;2.83;;;1.00;;
43325;SDS011;28920;59.862;30.636;2023-03-18T06:31:30;3.15;;;1.10;;
43325;SDS011;28920;59.862;30.636;2023-03-18T06:33:58;2.08;;;0.93;;
43325;SDS011;28920;59.862;30.636;2023-03-18T06:36:26;1.45;;;0.98;;
43325;SDS011;28920;59.862;30.636;2023-03-18T06:38:53;1.65;;;0.88;;
43325;SDS011;28920;59.862;30.636;2023-03-18T06:41:23;3.00;;;1.20;;
43325;SDS011;28920;59.862;30.636;2023-03-18T06:43:52;5.45;;;1.20;;
43325;SDS011;28920;59.862;30.636;2023-03-18T06:46:19;3.10;;;1.33;;
43325;SDS011;28920;59.862;30.636;2023-03-18T06:48:47;6.40;;;3.17;;
43325;SDS011;28920;59.862;30.636;2023-03-18T06:51:14;2.05;;;1.17;;
43325;SDS011;28920;59.862;30.636;2023-03-18T06:53:42;1.98;;;0.98;;
43325;SDS011;28920;59.862;30.636;2023-03-18T06:56:10;2.40;;;1.02;;
43325;SDS011;28920;59.862;30.636;2023-03-18T06:58:43;3.25;;;1.23;;
43325;SDS011;28920;59.862;30.636;2023-03-18T07:01:12;3.25;;;1.05;;
43325;SDS011;28920;59.862;30.636;2023-03-18T07:03:42;2.20;;;0.95;;
43325;SDS011;28920;59.862;30.636;2023-03-18T07:06:11;2.62;;;1.05;;
43325;SDS011;28920;59.862;30.636;2023-03-18T07:08:39;2.78;;;1.48;;
43325;SDS011;28920;59.862;30.636;2023-03-18T07:11:07;1.70;;;1.20;;
43325;SDS011;28920;59.862;30.636;2023-03-18T07:13:35;1.73;;;0.93;;
43325;SDS011;28920;59.862;30.636;2023-03-18T07:16:04;3.12;;;1.02;;
43325;SDS011;28920;59.862;30.636;2023-03-18T07:18:32;3.55;;;1.42;;
43325;SDS011;28920;59.862;30.636;2023-03-18T07:20:59;2.55;;;1.45;;
43325;SDS011;28920;59.862;30.636;2023-03-18T07:23:27;2.25;;;1.00;;
43325;SDS011;28920;59.862;30.636;2023-03-18T07:25:56;2.45;;;1.33;;
43325;SDS011;28920;59.862;30.636;2023-03-18T07:28:23;2.28;;;1.42;;
43325;SDS011;28920;59.862;30.636;2023-03-18T07:30:52;5.12;;;1.50;;
43325;SDS011;28920;59.862;30.636;2023-03-18T07:33:20;4.37;;;1.50;;
43325;SDS011;28920;59.862;30.636;2023-03-18T07:35:48;3.20;;;1.20;;
43325;SDS011;28920;59.862;30.636;2023-03-18T07:38:15;2.17;;;1.08;;
43325;SDS011;28920;59.862;30.636;2023-03-18T07:40:43;3.85;;;1.58;;
43325;SDS011;28920;59.862;30.636;2023-03-18T07:43:10;2.30;;;1.12;;
43325;SDS011;28920;59.862;30.636;2023-03-18T07:45:37;2.17;;;1.08;;
43325;SDS011;28920;59.862;30.636;2023-03-18T07:48:04;1.55;;;0.95;;
43325;SDS011;28920;59.862;30.636;2023-03-18T07:50:32;3.17;;;0.90;;
43325;SDS011;28920;59.862;30.636;2023-03-18T07:53:00;2.80;;;1.42;;
43325;SDS011;28920;59.862;30.636;2023-03-18T07:55:28;1.67;;;1.37;;
43325;SDS011;28920;59.862;30.636;2023-03-18T07:57:55;4.05;;;0.90;;
43325;SDS011;28920;59.862;30.636;2023-03-18T08:00:22;3.17;;;1.40;;
43325;SDS011;28920;59.862;30.636;2023-03-18T08:02:50;1.20;;;0.70;;
43325;SDS011;28920;59.862;30.636;2023-03-18T08:05:18;1.73;;;0.88;;
43325;SDS011;28920;59.862;30.636;2023-03-18T08:07:47;2.35;;;0.80;;
43325;SDS011;28920;59.862;30.636;2023-03-18T08:10:15;2.40;;;1.00;;
43325;SDS011;28920;59.862;30.636;2023-03-18T08:12:42;1.42;;;1.00;;
43325;SDS011;28920;59.862;30.636;2023-03-18T08:15:10;2.47;;;0.90;;
43325;SDS011;28920;59.862;30.636;2023-03-18T08:17:38;1.42;;;0.93;;
43325;SDS011;28920;59.862;30.636;2023-03-18T08:20:05;1.20;;;1.02;;
43325;SDS011;28920;59.862;30.636;2023-03-18T08:22:33;1.25;;;0.88;;
43325;SDS011;28920;59.862;30.636;2023-03-18T08:25:00;3.30;;;1.00;;
43325;SDS011;28920;59.862;30.636;2023-03-18T08:27:29;1.67;;;1.00;;
43325;SDS011;28920;59.862;30.636;2023-03-18T08:29:56;2.15;;;1.05;;
43325;SDS011;28920;59.862;30.636;2023-03-18T08:32:23;2.25;;;0.88;;
43325;SDS011;28920;59.862;30.636;2023-03-18T08:34:51;1.25;;;0.70;;
43325;SDS011;28920;59.862;30.636;2023-03-18T08:37:18;1.83;;;0.90;;
43325;SDS011;28920;59.862;30.636;2023-03-18T08:39:45;2.30;;;1.25;;
43325;SDS011;28920;59.862;30.636;2023-03-18T08:42:12;1.87;;;1.50;;
43325;SDS011;28920;59.862;30.636;2023-03-18T08:44:40;3.10;;;0.90;;
43325;SDS011;28920;59.862;30.636;2023-03-18T08:47:08;2.05;;;0.90;;
43325;SDS011;28920;59.862;30.636;2023-03-18T08:49:35;2.00;;;1.15;;
43325;SDS011;28920;59.862;30.636;2023-03-18T08:52:03;1.92;;;1.33;;
43325;SDS011;28920;59.862;30.636;2023-03-18T08:54:32;3.28;;;1.70;;
43325;SDS011;28920;59.862;30.636;2023-03-18T08:56:59;3.00;;;1.48;;
43325;SDS011;28920;59.862;30.636;2023-03-18T08:59:26;1.90;;;1.02;;
43325;SDS011;28920;59.862;30.636;2023-03-18T09:01:54;3.35;;;1.20;;
43325;SDS011;28920;59.862;30.636;2023-03-18T09:04:21;2.78;;;1.33;;
43325;SDS011;28920;59.862;30.636;2023-03-18T09:06:49;1.70;;;1.10;;
43325;SDS011;28920;59.862;30.636;2023-03-18T09:09:16;1.58;;;1.02;;
43325;SDS011;28920;59.862;30.636;2023-03-18T09:11:44;2.10;;;0.93;;
43325;SDS011;28920;59.862;30.636;2023-03-18T09:14:13;1.42;;;1.00;;
43325;SDS011;28920;59.862;30.636;2023-03-18T09:16:40;3.22;;;0.90;;
43325;SDS011;28920;59.862;30.636;2023-03-18T09:19:08;3.20;;;2.08;;
43325;SDS011;28920;59.862;30.636;2023-03-18T09:21:35;2.95;;;1.70;;
43325;SDS011;28920;59.862;30.636;2023-03-18T09:24:04;2.90;;;1.60;;
43325;SDS011;28920;59.862;30.636;2023-03-18T09:26:31;1.85;;;1.40;;
43325;SDS011;28920;59.862;30.636;2023-03-18T09:28:58;2.15;;;0.95;;
43325;SDS011;28920;59.862;30.636;2023-03-18T09:31:26;5.93;;;1.60;;
43325;SDS011;28920;59.862;30.636;2023-03-18T09:33:53;3.05;;;1.62;;
43325;SDS011;28920;59.862;30.636;2023-03-18T09:36:20;3.17;;;1.60;;
43325;SDS011;28920;59.862;30.636;2023-03-18T09:38:48;6.10;;;3.22;;
43325;SDS011;28920;59.862;30.636;2023-03-18T09:41:19;6.32;;;3.65;;
43325;SDS011;28920;59.862;30.636;2023-03-18T09:43:57;1.87;;;1.50;;
43325;SDS011;28920;59.862;30.636;2023-03-18T09:46:38;1.23;;;1.10;;
43325;SDS011;28920;59.862;30.636;2023-03-18T09:49:16;2.22;;;0.82;;
43325;SDS011;28920;59.862;30.636;2023-03-18T09:52:03;1.67;;;1.35;;
43325;SDS011;28920;59.862;30.636;2023-03-18T09:54:40;5.00;;;1.92;;
43325;SDS011;28920;59.862;30.636;2023-03-18T09:57:14;3.35;;;2.50;;
43325;SDS011;28920;59.862;30.636;2023-03-18T09:59:45;2.08;;;1.55;;
43325;SDS011;28920;59.862;30.636;2023-03-18T10:02:17;3.72;;;2.03;;
43325;SDS011;28920;59.862;30.636;2023-03-18T10:04:51;4.60;;;2.80;;
43325;SDS011;28920;59.862;30.636;2023-03-18T10:07:24;3.08;;;1.50;;
43325;SDS011;28920;59.862;30.636;2023-03-18T10:09:58;2.78;;;1.50;;
43325;SDS011;28920;59.862;30.636;2023-03-18T10:12:30;1.67;;;1.00;;
43325;SDS011;28920;59.862;30.636;2023-03-18T10:15:03;1.30;;;0.80;;
43325;SDS011;28920;59.862;30.636;2023-03-18T10:17:40;1.95;;;0.95;;
43325;SDS011;28920;59.862;30.636;2023-03-18T10:20:15;1.73;;;0.80;;
43325;SDS011;28920;59.862;30.636;2023-03-18T10:25:37;2.95;;;1.37;;
43325;SDS011;28920;59.862;30.636;2023-03-18T10:31:05;4.80;;;1.27;;
43325;SDS011;28920;59.862;30.636;2023-03-18T10:33:44;1.90;;;1.10;;
43325;SDS011;28920;59.862;30.636;2023-03-18T10:36:18;2.53;;;0.73;;
43325;SDS011;28920;59.862;30.636;2023-03-18T10:38:48;4.00;;;1.23;;
43325;SDS011;28920;59.862;30.636;2023-03-18T10:41:19;1.55;;;0.85;;
43325;SDS011;28920;59.862;30.636;2023-03-18T10:43:49;4.72;;;1.10;;
43325;SDS011;28920;59.862;30.636;2023-03-18T10:46:19;4.50;;;1.20;;
43325;SDS011;28920;59.862;30.636;2023-03-18T10:48:48;3.85;;;0.90;;
43325;SDS011;28920;59.862;30.636;2023-03-18T10:51:19;2.20;;;1.23;;
43325;SDS011;28920;59.862;30.636;2023-03-18T10:53:54;3.05;;;1.67;;
43325;SDS011;28920;59.862;30.636;2023-03-18T10:56:24;2.15;;;1.02;;
43325;SDS011;28920;59.862;30.636;2023-03-18T10:58:52;2.47;;;1.45;;
43325;SDS011;28920;59.862;30.636;2023-03-18T11:01:19;1.87;;;0.90;;
43325;SDS011;28920;59.862;30.636;2023-03-18T11:03:50;2.87;;;1.48;;
43325;SDS011;28920;59.862;30.636;2023-03-18T11:06:21;2.40;;;1.08;;
43325;SDS011;28920;59.862;30.636;2023-03-18T11:08:59;1.70;;;1.10;;
43325;SDS011;28920;59.862;30.636;2023-03-18T11:11:31;2.45;;;1.12;;
43325;SDS011;28920;59.862;30.636;2023-03-18T11:14:00;1.00;;;0.90;;
43325;SDS011;28920;59.862;30.636;2023-03-18T11:16:32;2.62;;;1.15;;
43325;SDS011;28920;59.862;30.636;2023-03-18T11:19:19;1.12;;;1.00;;
43325;SDS011;28920;59.862;30.636;2023-03-18T11:21:58;1.70;;;1.00;;
43325;SDS011;28920;59.862;30.636;2023-03-18T11:24:28;3.08;;;1.20;;
43325;SDS011;28920;59.862;30.636;2023-03-18T11:27:10;3.42;;;1.48;;
43325;SDS011;28920;59.862;30.636;2023-03-18T11:29:53;2.30;;;1.25;;
43325;SDS011;28920;59.862;30.636;2023-03-18T11:32:23;1.58;;;0.95;;
43325;SDS011;28920;59.862;30.636;2023-03-18T11:34:53;2.30;;;1.20;;
43325;SDS011;28920;59.862;30.636;2023-03-18T11:37:25;2.37;;;1.42;;
43325;SDS011;28920;59.862;30.636;2023-03-18T11:40:05;2.72;;;1.60;;
43325;SDS011;28920;59.862;30.636;2023-03-18T11:42:43;3.12;;;1.17;;
43325;SDS011;28920;59.862;30.636;2023-03-18T11:45:23;2.58;;;1.40;;
43325;SDS011;28920;59.862;30.636;2023-03-18T11:47:57;1.60;;;1.02;;
43325;SDS011;28920;59.862;30.636;2023-03-18T11:50:25;1.85;;;1.12;;
43325;SDS011;28920;59.862;30.636;2023-03-18T11:52:59;3.90;;;1.50;;
43325;SDS011;28920;59.862;30.636;2023-03-18T11:55:38;2.35;;;1.37;;
43325;SDS011;28920;59.862;30.636;2023-03-18T11:58:19;1.27;;;1.15;;
43325;SDS011;28920;59.862;30.636;2023-03-18T12:01:00;1.60;;;1.05;;
43325;SDS011;28920;59.862;30.636;2023-03-18T12:06:47;2.05;;;1.20;;
43325;SDS011;28920;59.862;30.636;2023-03-18T12:09:32;3.53;;;1.30;;
43325;SDS011;28920;59.862;30.636;2023-03-18T12:12:11;1.35;;;0.90;;
43325;SDS011;28920;59.862;30.636;2023-03-18T12:14:53;2.03;;;1.15;;
43325;SDS011;28920;59.862;30.636;2023-03-18T12:17:31;2.42;;;1.42;;
43325;SDS011;28920;59.862;30.636;2023-03-18T12:20:11;3.08;;;1.45;;
43325;SDS011;28920;59.862;30.636;2023-03-18T12:22:58;3.00;;;1.35;;
43325;SDS011;28920;59.862;30.636;2023-03-18T12:25:32;2.28;;;1.20;;
43325;SDS011;28920;59.862;30.636;2023-03-18T12:28:10;2.67;;;1.20;;
43325;SDS011;28920;59.862;30.636;2023-03-18T12:31:00;2.60;;;1.50;;
43325;SDS011;28920;59.862;30.636;2023-03-18T12:33:49;2.05;;;1.42;;
43325;SDS011;28920;59.862;30.636;2023-03-18T12:36:23;2.12;;;1.10;;
43325;SDS011;28920;59.862;30.636;2023-03-18T12:39:10;2.53;;;1.40;;
43325;SDS011;28920;59.862;30.636;2023-03-18T12:41:56;2.75;;;1.33;;
43325;SDS011;28920;59.862;30.636;2023-03-18T12:44:31;2.25;;;1.40;;
43325;SDS011;28920;59.862;30.636;2023-03-18T12:47:14;3.78;;;1.92;;
43325;SDS011;28920;59.862;30.636;2023-03-18T12:49:44;2.08;;;1.15;;
43325;SDS011;28920;59.862;30.636;2023-03-18T12:52:18;1.37;;;0.95;;
43325;SDS011;28920;59.862;30.636;2023-03-18T12:54:54;3.53;;;1.70;;
43325;SDS011;28920;59.862;30.636;2023-03-18T12:57:30;3.12;;;1.00;;
43325;SDS011;28920;59.862;30.636;2023-03-18T13:00:06;3.60;;;1.70;;
43325;SDS011;28920;59.862;30.636;2023-03-18T13:02:42;2.25;;;1.65;;
43325;SDS011;28920;59.862;30.636;2023-03-18T13:05:17;3.00;;;1.62;;
43325;SDS011;28920;59.862;30.636;2023-03-18T13:07:51;2.37;;;1.25;;
43325;SDS011;28920;59.862;30.636;2023-03-18T13:10:28;4.70;;;1.42;;
43325;SDS011;28920;59.862;30.636;2023-03-18T13:13:02;3.85;;;2.15;;
43325;SDS011;28920;59.862;30.636;2023-03-18T13:15:37;2.85;;;1.45;;
43325;SDS011;28920;59.862;30.636;2023-03-18T13:18:11;7.20;;;2.90;;
43325;SDS011;28920;59.862;30.636;2023-03-18T13:20:44;4.05;;;2.15;;
43325;SDS011;28920;59.862;30.636;2023-03-18T13:23:15;6.07;;;3.28;;
43325;SDS011;28920;59.862;30.636;2023-03-18T13:25:57;2.75;;;1.30;;
43325;SDS011;28920;59.862;30.636;2023-03-18T13:28:54;3.47;;;1.52;;
43325;SDS011;28920;59.862;30.636;2023-03-18T13:31:35;4.25;;;1.58;;
43325;SDS011;28920;59.862;30.636;2023-03-18T13:39:46;2.53;;;2.08;;
43325;SDS011;28920;59.862;30.636;2023-03-18T13:42:35;3.22;;;1.52;;
43325;SDS011;28920;59.862;30.636;2023-03-18T13:45:05;2.35;;;1.60;;
43325;SDS011;28920;59.862;30.636;2023-03-18T13:47:41;4.22;;;1.85;;
43325;SDS011;28920;59.862;30.636;2023-03-18T13:50:23;1.67;;;1.40;;
43325;SDS011;28920;59.862;30.636;2023-03-18T13:52:55;1.40;;;1.30;;
43325;SDS011;28920;59.862;30.636;2023-03-18T13:55:26;4.18;;;1.73;;
43325;SDS011;28920;59.862;30.636;2023-03-18T13:58:06;3.20;;;1.40;;
43325;SDS011;28920;59.862;30.636;2023-03-18T14:03:53;2.70;;;2.08;;
43325;SDS011;28920;59.862;30.636;2023-03-18T14:06:37;2.15;;;1.20;;
43325;SDS011;28920;59.862;30.636;2023-03-18T14:09:21;3.58;;;1.77;;
43325;SDS011;28920;59.862;30.636;2023-03-18T14:12:09;1.80;;;1.60;;
43325;SDS011;28920;59.862;30.636;2023-03-18T14:17:45;2.17;;;1.15;;
43325;SDS011;28920;59.862;30.636;2023-03-18T14:20:22;2.22;;;1.00;;
43325;SDS011;28920;59.862;30.636;2023-03-18T14:22:54;2.42;;;2.17;;
43325;SDS011;28920;59.862;30.636;2023-03-18T14:25:43;2.17;;;1.55;;
43325;SDS011;28920;59.862;30.636;2023-03-18T14:28:22;3.45;;;1.33;;
43325;SDS011;28920;59.862;30.636;2023-03-18T14:34:01;4.87;;;2.72;;
43325;SDS011;28920;59.862;30.636;2023-03-18T14:37:04;3.15;;;1.40;;
43325;SDS011;28920;59.862;30.636;2023-03-18T14:42:33;5.75;;;4.05;;
43325;SDS011;28920;59.862;30.636;2023-03-18T14:45:11;2.75;;;2.10;;
43325;SDS011;28920;59.862;30.636;2023-03-18T14:47:43;4.05;;;2.75;;
43325;SDS011;28920;59.862;30.636;2023-03-18T14:50:18;2.15;;;1.30;;
43325;SDS011;28920;59.862;30.636;2023-03-18T14:52:56;2.92;;;1.55;;
43325;SDS011;28920;59.862;30.636;2023-03-18T14:55:29;2.28;;;1.30;;
43325;SDS011;28920;59.862;30.636;2023-03-18T14:57:59;1.77;;;1.40;;
43325;SDS011;28920;59.862;30.636;2023-03-18T15:00:28;1.27;;;1.00;;
43325;SDS011;28920;59.862;30.636;2023-03-18T15:02:59;2.17;;;0.97;;
43325;SDS011;28920;59.862;30.636;2023-03-18T15:05:30;2.08;;;1.10;;
43325;SDS011;28920;59.862;30.636;2023-03-18T15:08:01;2.60;;;1.23;;
43325;SDS011;28920;59.862;30.636;2023-03-18T15:10:34;2.78;;;1.20;;
43325;SDS011;28920;59.862;30.636;2023-03-18T15:13:03;1.20;;;0.98;;
43325;SDS011;28920;59.862;30.636;2023-03-18T15:15:32;1.37;;;1.20;;
43325;SDS011;28920;59.862;30.636;2023-03-18T15:18:01;2.45;;;1.20;;
43325;SDS011;28920;59.862;30.636;2023-03-18T15:20:36;2.80;;;1.40;;
43325;SDS011;28920;59.862;30.636;2023-03-18T15:23:06;1.40;;;1.00;;